Weather at Narromine Airport

Public forecast

Using degrees Celsius for public forecast. Weather courtesy of forecast.io.

Closest aviation weather report (METAR) to Narromine Airport

Closest report is Dubbo City Regional Airport, 17.8 nm (32.9 km) E.

2024/06/15 16:30 (retrieved 25 minutes ago)

YSDU 151630Z AUTO 15007KT 9999 // OVC065 09/08 Q1016 RF000/0042

Closest aviation forecast (TAF) to Narromine Airport

Closest forecast is Dubbo City Regional Airport, 17.8 nm (32.9 km) E.

2024/06/15 12:15 Ammendment (retrieved 5 hours ago)

TAF AMD YSDU 151111Z 1512/1606 15008KT 9999 -SHRA SCT010 BKN050 FM151500 20006KT 9999 NSW FEW010 SCT030 FM160000 20012KT CAVOK INTER 1512/1515 4000 SHRA BKN010 PROB30 1515/1521 0300 FG